Time;durP1;ratioP1;P1;durP2;ratioP2;P2;SDS_P1;SDS_P2;PMS_P1;PMS_P2;Temp;Humidity;BMP_temperature;BMP_pressure;BME280_temperature;BME280_humidity;BME280_pressure;Samples;Min_cycle;Max_cycle;Signal;HPM_P1;HPM_P2
2022/12/28 00:00:49;;;;;;;14.15;5.82;;;5.20;99.90;;;;;;5128023;27;20050;-60
2022/12/28 00:03:15;;;;;;;16.65;6.22;;;5.10;99.90;;;;;;5127364;27;20030;-62
2022/12/28 00:05:41;;;;;;;14.73;6.15;;;5.10;99.90;;;;;;5128296;27;20489;-62
2022/12/28 00:08:06;;;;;;;19.08;6.70;;;5.10;99.90;;;;;;5127339;27;20047;-62
2022/12/28 00:10:32;;;;;;;19.88;6.47;;;5.10;99.90;;;;;;5128927;27;20047;-62
2022/12/28 00:12:57;;;;;;;20.08;5.90;;;5.00;99.90;;;;;;5128624;27;20454;-63
2022/12/28 00:15:23;;;;;;;21.23;7.47;;;5.00;99.90;;;;;;5127827;27;20406;-61
2022/12/28 00:17:48;;;;;;;15.25;6.65;;;5.00;99.90;;;;;;5103665;27;20046;-66
2022/12/28 00:20:14;;;;;;;19.10;6.70;;;5.00;99.90;;;;;;5128156;27;20448;-63
2022/12/28 00:22:39;;;;;;;20.65;6.90;;;5.00;99.90;;;;;;5126733;27;20488;-63
2022/12/28 00:25:06;;;;;;;18.02;7.57;;;5.00;99.90;;;;;;5128217;27;20546;-62
2022/12/28 00:27:31;;;;;;;18.05;7.05;;;5.00;99.90;;;;;;5127012;27;20065;-61
2022/12/28 00:29:57;;;;;;;18.13;6.95;;;4.90;99.90;;;;;;5128143;27;20038;-63
2022/12/28 00:32:23;;;;;;;18.85;6.85;;;5.00;99.90;;;;;;5126720;27;20046;-64
2022/12/28 00:34:48;;;;;;;16.77;7.05;;;5.00;99.90;;;;;;5110564;27;20057;-60
2022/12/28 00:37:14;;;;;;;16.67;7.10;;;4.90;99.90;;;;;;5125795;27;20493;-62
2022/12/28 00:39:41;;;;;;;16.88;7.30;;;5.00;99.90;;;;;;5128456;27;20042;-61
2022/12/28 00:42:07;;;;;;;17.65;7.22;;;4.90;99.90;;;;;;5127405;27;20059;-63
2022/12/28 00:44:32;;;;;;;22.63;7.30;;;4.90;99.90;;;;;;5128319;27;20054;-63
2022/12/28 00:46:58;;;;;;;20.73;7.97;;;4.90;99.90;;;;;;5125258;27;20030;-64
2022/12/28 00:49:23;;;;;;;16.30;7.38;;;4.90;99.90;;;;;;5127172;27;20129;-62
2022/12/28 00:51:49;;;;;;;17.42;7.90;;;4.90;99.90;;;;;;5125980;27;20547;-62
2022/12/28 00:54:14;;;;;;;16.67;7.68;;;5.00;99.90;;;;;;5127362;27;20110;-63
2022/12/28 00:56:41;;;;;;;17.98;7.68;;;5.00;99.90;;;;;;5110253;27;20648;-60
2022/12/28 00:59:07;;;;;;;17.33;8.30;;;5.00;99.90;;;;;;5127563;27;20390;-61
2022/12/28 01:01:33;;;;;;;18.83;7.93;;;5.00;99.90;;;;;;5126921;27;20321;-64
2022/12/28 01:03:59;;;;;;;19.90;8.15;;;5.00;99.90;;;;;;5126105;27;20081;-63
2022/12/28 01:06:26;;;;;;;15.07;7.88;;;5.00;99.90;;;;;;5126090;27;20047;-63
2022/12/28 01:08:52;;;;;;;18.83;8.30;;;5.00;99.90;;;;;;5126123;27;20697;-61
2022/12/28 01:11:23;;;;;;;22.50;8.90;;;5.00;99.90;;;;;;5146403;27;20035;-62
2022/12/28 01:13:51;;;;;;;18.85;8.02;;;5.10;99.90;;;;;;5109428;27;20046;-61
2022/12/28 01:16:24;;;;;;;15.02;7.10;;;5.10;99.90;;;;;;5127474;27;20054;-62
2022/12/28 01:18:56;;;;;;;13.80;7.43;;;5.10;99.90;;;;;;5108162;27;20046;-61
2022/12/28 01:21:23;;;;;;;20.70;7.90;;;5.10;99.90;;;;;;5126475;27;20038;-61
2022/12/28 01:23:53;;;;;;;14.55;7.13;;;5.10;99.90;;;;;;5144836;27;20042;-61
2022/12/28 01:26:18;;;;;;;19.85;8.02;;;5.10;99.90;;;;;;5146415;27;20379;-62
2022/12/28 01:28:44;;;;;;;11.48;6.70;;;5.20;99.90;;;;;;5109590;27;20038;-61
2022/12/28 01:31:15;;;;;;;18.33;7.25;;;5.10;99.90;;;;;;5127240;27;20187;-61
2022/12/28 01:33:41;;;;;;;19.23;7.13;;;5.10;99.90;;;;;;5143856;27;20609;-60
2022/12/28 01:36:12;;;;;;;16.48;7.10;;;5.10;99.90;;;;;;5144806;27;20038;-61
2022/12/28 01:38:37;;;;;;;19.30;7.20;;;5.20;99.90;;;;;;5143578;27;20702;-61
2022/12/28 01:41:07;;;;;;;16.65;7.95;;;5.20;99.90;;;;;;5127121;27;20030;-59
2022/12/28 01:43:43;;;;;;;22.55;7.88;;;5.30;99.90;;;;;;5144439;27;20035;-61
2022/12/28 01:46:33;;;;;;;17.10;7.85;;;5.20;99.90;;;;;;5126982;27;20126;-61
2022/12/28 01:49:05;;;;;;;14.75;7.85;;;5.20;99.90;;;;;;5144378;27;20576;-62
2022/12/28 01:51:40;;;;;;;17.98;7.53;;;5.20;99.90;;;;;;5125746;27;20055;-61
2022/12/28 01:54:05;;;;;;;20.83;8.68;;;5.30;99.90;;;;;;5144504;27;20119;-61
2022/12/28 01:56:31;;;;;;;15.88;8.38;;;5.20;99.90;;;;;;5126188;27;20043;-62
2022/12/28 01:58:57;;;;;;;16.08;8.40;;;5.30;99.90;;;;;;5145239;27;20114;-63
2022/12/28 02:01:24;;;;;;;17.58;7.95;;;5.30;99.90;;;;;;5108952;27;20042;-64
2022/12/28 02:03:49;;;;;;;18.95;8.80;;;5.30;99.90;;;;;;5124600;27;20522;-62
2022/12/28 02:06:15;;;;;;;19.23;8.57;;;5.30;99.90;;;;;;5125866;27;20039;-61
2022/12/28 02:08:48;;;;;;;24.45;9.23;;;5.30;99.90;;;;;;5124174;27;20050;-62
2022/12/28 02:11:17;;;;;;;17.80;9.00;;;5.30;99.90;;;;;;5126622;27;20123;-61
2022/12/28 02:13:45;;;;;;;23.20;9.30;;;5.30;99.90;;;;;;5126673;27;20074;-62
2022/12/28 02:16:11;;;;;;;21.33;8.82;;;5.30;99.90;;;;;;5125397;27;20079;-64
2022/12/28 02:18:38;;;;;;;21.33;9.23;;;5.30;99.90;;;;;;5123903;27;20039;-63
2022/12/28 02:21:19;;;;;;;21.05;9.70;;;5.30;99.90;;;;;;5125828;27;20606;-62
2022/12/28 02:24:38;;;;;;;20.83;10.35;;;5.30;99.90;;;;;;5124807;27;20035;-63
2022/12/28 02:27:37;;;;;;;22.05;10.23;;;5.30;99.90;;;;;;5047487;28;20041;-63
2022/12/28 02:30:11;;;;;;;22.58;10.50;;;5.30;99.90;;;;;;5129627;27;20030;-62
2022/12/28 02:32:45;;;;;;;23.98;10.75;;;5.30;99.90;;;;;;5147343;27;20054;-64
2022/12/28 02:35:37;;;;;;;24.42;10.55;;;5.40;99.90;;;;;;5130248;27;20039;-62
2022/12/28 02:38:19;;;;;;;22.95;10.30;;;5.30;99.90;;;;;;5147009;27;20442;-63
2022/12/28 02:40:46;;;;;;;17.25;10.88;;;5.40;99.90;;;;;;5130591;27;20043;-63
2022/12/28 02:43:12;;;;;;;21.63;10.50;;;5.40;99.90;;;;;;5130848;27;20038;-62
2022/12/28 02:51:12;;;;;;;;;;;5.40;99.90;;;;;;5129731;27;20051;-61
2022/12/28 02:56:06;;;;;;;17.55;9.40;;;5.40;99.90;;;;;;5128155;27;20176;-61
2022/12/28 02:57:39;;;;;;;20.80;9.98;;;5.40;99.90;;;;;;5126013;27;20509;-64
2022/12/28 03:00:14;;;;;;;18.73;10.18;;;5.40;99.90;;;;;;5111789;27;20038;-63
2022/12/28 03:03:24;;;;;;;18.77;10.27;;;5.40;99.90;;;;;;5111073;27;20412;-61
2022/12/28 03:09:36;;;;;;;18.75;10.25;;;5.40;99.90;;;;;;5128348;27;20073;-63
2022/12/28 03:12:25;;;;;;;17.27;9.40;;;5.50;99.90;;;;;;5128896;27;20062;-63
2022/12/28 03:14:53;;;;;;;22.08;10.60;;;5.50;99.90;;;;;;5128330;27;20067;-61
2022/12/28 03:31:28;;;;;;;16.50;10.18;;;5.60;99.90;;;;;;5128219;27;20046;-62
2022/12/28 03:34:05;;;;;;;17.25;9.88;;;5.60;99.90;;;;;;5127340;27;20042;-65
2022/12/28 03:36:49;;;;;;;16.77;10.57;;;5.70;99.90;;;;;;5128596;27;20043;-62
2022/12/28 03:39:30;;;;;;;15.60;10.43;;;5.70;99.90;;;;;;5128445;27;20692;-62
2022/12/28 03:45:35;;;;;;;20.38;11.25;;;5.70;99.90;;;;;;5129057;27;20043;-61
2022/12/28 03:48:03;;;;;;;24.52;11.35;;;5.80;99.90;;;;;;5127883;27;20046;-61
2022/12/28 03:50:33;;;;;;;22.17;11.80;;;5.80;99.90;;;;;;5128721;27;20544;-61
2022/12/28 03:52:58;;;;;;;19.35;10.07;;;5.80;99.90;;;;;;5126787;27;20075;-61
2022/12/28 03:55:24;;;;;;;20.20;11.25;;;5.90;99.90;;;;;;5147375;27;20034;-63
2022/12/28 03:57:50;;;;;;;17.98;10.88;;;5.90;99.90;;;;;;5110540;27;20031;-61
2022/12/28 04:00:16;;;;;;;19.88;10.55;;;6.00;99.90;;;;;;5128611;27;20482;-63
2022/12/28 04:02:42;;;;;;;20.38;11.02;;;5.90;99.90;;;;;;5126868;27;20050;-63
2022/12/28 04:05:07;;;;;;;19.13;9.73;;;6.00;99.90;;;;;;5128469;27;20038;-62
2022/12/28 04:07:33;;;;;;;17.95;8.88;;;6.00;99.90;;;;;;5126014;27;20039;-62
2022/12/28 04:09:58;;;;;;;18.20;8.48;;;6.00;99.90;;;;;;5128603;27;20053;-63
2022/12/28 04:12:24;;;;;;;16.88;8.60;;;6.10;99.90;;;;;;5129248;27;20042;-63
2022/12/28 04:14:49;;;;;;;15.07;8.05;;;6.10;99.90;;;;;;5128687;27;20095;-62
2022/12/28 04:17:15;;;;;;;12.57;8.30;;;6.20;99.90;;;;;;5126699;27;20227;-63
2022/12/28 04:19:41;;;;;;;18.17;8.48;;;6.20;99.90;;;;;;5127408;27;20039;-63
2022/12/28 04:22:06;;;;;;;11.70;7.03;;;6.20;99.90;;;;;;5125131;27;20046;-64
2022/12/28 04:24:32;;;;;;;16.70;10.00;;;6.30;99.90;;;;;;5128332;27;20091;-63
2022/12/28 04:26:57;;;;;;;13.63;8.38;;;6.30;99.90;;;;;;5128293;27;20540;-62
2022/12/28 04:29:23;;;;;;;15.63;8.40;;;6.30;99.90;;;;;;5126843;27;20049;-62
2022/12/28 04:31:49;;;;;;;11.55;7.00;;;6.30;99.90;;;;;;5127402;27;20585;-62
2022/12/28 04:34:14;;;;;;;14.00;7.30;;;6.30;99.90;;;;;;5127720;27;20126;-63
2022/12/28 04:36:41;;;;;;;13.73;6.78;;;6.30;99.90;;;;;;5127159;27;20034;-64
2022/12/28 04:39:07;;;;;;;11.63;6.80;;;6.40;99.90;;;;;;5127080;27;20091;-61
2022/12/28 04:41:33;;;;;;;12.57;7.00;;;6.40;99.90;;;;;;5128228;27;20488;-63
2022/12/28 04:43:58;;;;;;;12.25;6.97;;;6.40;99.90;;;;;;5146153;27;20035;-63
2022/12/28 04:46:24;;;;;;;11.30;7.53;;;6.40;99.90;;;;;;5127622;27;20039;-62
2022/12/28 04:48:50;;;;;;;11.50;6.32;;;6.50;99.90;;;;;;5125798;27;20580;-62
2022/12/28 04:51:23;;;;;;;11.10;6.85;;;6.40;99.90;;;;;;5127061;27;20520;-61
2022/12/28 04:53:49;;;;;;;13.77;7.22;;;6.50;99.90;;;;;;5125984;27;20046;-63
2022/12/28 04:56:17;;;;;;;11.27;6.57;;;6.50;99.90;;;;;;5127674;27;20073;-60
2022/12/28 04:58:43;;;;;;;12.27;6.63;;;6.50;99.90;;;;;;5128013;27;20718;-61
2022/12/28 05:01:14;;;;;;;12.30;7.38;;;6.50;99.90;;;;;;5127449;27;20027;-61
2022/12/28 05:03:41;;;;;;;11.60;7.65;;;6.60;99.90;;;;;;5125802;27;20460;-61
2022/12/28 05:06:11;;;;;;;12.43;7.35;;;6.60;99.90;;;;;;5126492;27;20086;-60
2022/12/28 05:08:37;;;;;;;9.82;6.10;;;6.60;99.90;;;;;;5126063;27;20554;-62
2022/12/28 05:11:06;;;;;;;13.40;7.60;;;6.70;99.90;;;;;;5146519;27;20045;-62
2022/12/28 05:13:32;;;;;;;12.82;8.38;;;6.70;99.90;;;;;;5126197;27;20480;-60
2022/12/28 05:16:02;;;;;;;13.95;8.35;;;6.70;99.90;;;;;;5110343;27;20077;-61
2022/12/28 05:18:28;;;;;;;15.20;8.55;;;6.70;99.90;;;;;;5108271;27;20075;-63
2022/12/28 05:21:02;;;;;;;14.77;8.13;;;6.70;99.90;;;;;;5126512;27;20788;-62
2022/12/28 05:23:32;;;;;;;15.98;9.85;;;6.80;99.90;;;;;;5125322;27;20622;-60
2022/12/28 05:25:58;;;;;;;15.52;9.30;;;6.80;99.90;;;;;;5127123;27;20042;-62
2022/12/28 05:28:24;;;;;;;13.27;7.80;;;6.80;99.90;;;;;;5145047;27;20615;-63
2022/12/28 05:30:50;;;;;;;14.43;9.85;;;6.90;99.90;;;;;;5126874;27;20034;-61
2022/12/28 05:33:16;;;;;;;12.85;8.10;;;6.90;99.90;;;;;;5124675;27;20042;-63
2022/12/28 05:35:41;;;;;;;17.65;9.20;;;7.00;99.90;;;;;;5126172;27;20507;-63
2022/12/28 05:38:07;;;;;;;15.57;9.65;;;7.00;99.90;;;;;;5124469;27;20120;-62
2022/12/28 05:40:33;;;;;;;15.48;8.68;;;7.00;99.90;;;;;;5126981;27;20154;-62
2022/12/28 05:42:59;;;;;;;16.75;10.02;;;7.00;99.90;;;;;;5145853;27;20043;-59
2022/12/28 05:45:24;;;;;;;14.40;9.25;;;7.10;99.90;;;;;;5126878;27;20420;-61
2022/12/28 05:47:50;;;;;;;14.68;9.45;;;7.10;99.90;;;;;;5124666;27;20039;-60
2022/12/28 05:50:16;;;;;;;14.30;10.43;;;7.10;99.90;;;;;;5125939;27;20061;-62
2022/12/28 05:52:41;;;;;;;16.13;10.80;;;7.20;99.90;;;;;;5125133;27;20046;-61
2022/12/28 05:55:07;;;;;;;18.02;11.57;;;7.20;99.90;;;;;;5127462;27;20042;-61
2022/12/28 05:57:33;;;;;;;17.15;11.65;;;7.20;99.90;;;;;;5126533;27;20030;-62
2022/12/28 05:59:58;;;;;;;16.83;10.80;;;7.30;99.90;;;;;;5126321;27;20485;-62
2022/12/28 06:02:26;;;;;;;16.15;8.60;;;7.30;99.90;;;;;;5124846;27;20054;-62
2022/12/28 06:04:52;;;;;;;17.42;11.55;;;7.30;99.90;;;;;;5144488;27;20043;-62
2022/12/28 06:07:18;;;;;;;18.85;12.07;;;7.40;99.90;;;;;;5143006;27;20031;-62
2022/12/28 06:09:44;;;;;;;18.35;12.68;;;7.40;99.90;;;;;;5109521;27;20043;-64
2022/12/28 06:12:09;;;;;;;17.88;12.88;;;7.40;99.90;;;;;;5126546;27;20049;-63
2022/12/28 06:14:35;;;;;;;16.80;13.20;;;7.50;99.90;;;;;;5126146;27;20549;-61
2022/12/28 06:17:00;;;;;;;17.27;12.73;;;7.50;99.90;;;;;;5107892;27;20142;-63
2022/12/28 06:19:26;;;;;;;19.58;13.73;;;7.60;99.90;;;;;;5125852;27;20082;-61
2022/12/28 06:21:52;;;;;;;20.58;13.38;;;7.60;99.90;;;;;;5125206;27;20042;-62
2022/12/28 06:24:17;;;;;;;17.00;12.43;;;7.60;99.90;;;;;;5125458;27;20039;-61
2022/12/28 06:26:44;;;;;;;17.15;12.45;;;7.60;99.90;;;;;;5125451;27;20046;-64
2022/12/28 06:29:11;;;;;;;17.85;12.32;;;7.70;99.90;;;;;;5126737;27;20046;-60
2022/12/28 06:31:39;;;;;;;19.33;12.15;;;7.70;99.90;;;;;;5143845;27;20090;-64
2022/12/28 06:34:07;;;;;;;14.07;9.10;;;7.70;99.90;;;;;;5143209;27;20023;-61
2022/12/28 06:36:41;;;;;;;14.32;9.95;;;7.70;99.90;;;;;;5108016;27;20038;-62
2022/12/28 06:39:09;;;;;;;16.30;10.85;;;7.70;99.90;;;;;;5124976;27;20141;-64
2022/12/28 06:41:35;;;;;;;14.52;9.98;;;7.70;99.90;;;;;;5126331;27;20074;-62
2022/12/28 06:44:04;;;;;;;14.25;9.60;;;7.70;99.90;;;;;;5125602;27;20027;-62
2022/12/28 06:46:30;;;;;;;16.92;10.32;;;7.70;99.90;;;;;;5125921;27;20118;-62
2022/12/28 06:48:56;;;;;;;13.65;8.40;;;7.70;99.90;;;;;;5124836;27;20039;-61
2022/12/28 06:51:28;;;;;;;12.70;8.52;;;7.70;99.90;;;;;;5125385;27;20047;-61
2022/12/28 06:53:54;;;;;;;12.27;8.90;;;7.70;99.90;;;;;;5124385;27;20105;-60
2022/12/28 06:56:22;;;;;;;14.23;9.27;;;7.80;99.90;;;;;;5125736;27;20107;-64
2022/12/28 06:58:49;;;;;;;14.45;9.20;;;7.80;99.90;;;;;;5108176;27;20034;-62
2022/12/28 07:01:23;;;;;;;17.45;10.25;;;7.80;99.90;;;;;;5144825;27;20070;-61
2022/12/28 07:03:50;;;;;;;12.80;9.43;;;7.80;99.90;;;;;;5142533;27;20034;-64
2022/12/28 07:06:17;;;;;;;16.70;10.20;;;7.80;99.90;;;;;;5125208;27;20130;-62
2022/12/28 07:08:44;;;;;;;15.73;10.15;;;7.80;99.90;;;;;;5142292;27;20034;-62
2022/12/28 07:11:19;;;;;;;16.70;10.75;;;7.80;99.90;;;;;;5127029;27;20034;-60
2022/12/28 07:13:44;;;;;;;15.05;10.82;;;7.80;99.90;;;;;;5111557;27;20046;-61
2022/12/28 07:16:13;;;;;;;16.70;10.55;;;7.80;99.90;;;;;;5148306;27;20043;-61
2022/12/28 07:18:38;;;;;;;15.27;9.25;;;7.80;99.90;;;;;;5146310;27;20071;-62
2022/12/28 07:21:07;;;;;;;14.40;8.77;;;7.90;99.90;;;;;;5112290;27;20124;-60
2022/12/28 07:23:33;;;;;;;15.82;10.48;;;7.90;99.90;;;;;;5110856;27;20054;-61
2022/12/28 07:26:06;;;;;;;13.98;9.25;;;7.90;99.90;;;;;;5142797;27;20499;-61
2022/12/28 07:28:32;;;;;;;14.75;10.23;;;7.90;99.90;;;;;;5092094;27;20058;-61
2022/12/28 07:30:58;;;;;;;16.65;10.77;;;7.90;99.90;;;;;;5118535;27;20568;-62
2022/12/28 07:33:24;;;;;;;13.70;9.60;;;8.00;99.90;;;;;;5146635;27;20179;-61
2022/12/28 07:35:49;;;;;;;16.77;10.75;;;8.00;99.90;;;;;;5129711;27;20454;-61
2022/12/28 07:38:15;;;;;;;17.65;11.88;;;8.00;99.90;;;;;;5127584;27;20060;-62
2022/12/28 07:40:40;;;;;;;16.33;11.25;;;8.00;99.90;;;;;;5129388;27;20047;-62
2022/12/28 07:43:06;;;;;;;17.55;11.43;;;8.00;99.90;;;;;;5148463;27;20058;-61
2022/12/28 07:45:31;;;;;;;13.38;9.43;;;8.00;99.90;;;;;;5127991;27;20157;-63
2022/12/28 07:47:57;;;;;;;18.02;11.73;;;8.10;99.90;;;;;;5145566;27;20038;-62
2022/12/28 07:50:23;;;;;;;19.40;11.68;;;8.10;99.90;;;;;;5147966;27;20051;-61
2022/12/28 07:52:48;;;;;;;17.65;11.48;;;8.20;99.90;;;;;;5124627;27;20039;-64
2022/12/28 07:55:14;;;;;;;19.50;12.60;;;8.20;99.90;;;;;;5129364;27;20061;-62
2022/12/28 07:57:39;;;;;;;20.00;12.75;;;8.30;99.90;;;;;;5147698;27;20486;-61
2022/12/28 08:00:06;;;;;;;19.98;12.00;;;8.30;99.90;;;;;;5146009;27;20078;-62
2022/12/28 08:02:32;;;;;;;18.95;12.60;;;8.40;99.90;;;;;;5118933;27;20049;-64
2022/12/28 08:04:58;;;;;;;18.13;12.88;;;8.40;99.90;;;;;;5127263;27;20034;-62
2022/12/28 08:07:23;;;;;;;18.50;13.13;;;8.40;99.90;;;;;;5125340;27;20129;-63
2022/12/28 08:09:49;;;;;;;21.45;12.90;;;8.40;99.90;;;;;;5147491;27;20439;-62
2022/12/28 08:12:14;;;;;;;17.67;12.35;;;8.40;99.90;;;;;;5128123;27;20050;-61
2022/12/28 08:14:40;;;;;;;20.63;12.75;;;8.40;99.90;;;;;;5147146;27;20686;-64
2022/12/28 08:17:05;;;;;;;18.88;13.10;;;8.40;99.90;;;;;;5127592;27;20509;-60
2022/12/28 08:19:31;;;;;;;18.30;12.57;;;8.40;99.90;;;;;;5146913;27;20525;-59
2022/12/28 08:21:57;;;;;;;14.02;9.57;;;8.40;99.90;;;;;;5144383;27;20038;-63
2022/12/28 08:24:22;;;;;;;17.02;11.30;;;8.40;99.90;;;;;;5125950;27;20512;-62
2022/12/28 08:26:49;;;;;;;18.15;12.50;;;8.40;99.90;;;;;;5107554;27;20658;-60
2022/12/28 08:29:18;;;;;;;11.23;6.88;;;8.40;99.90;;;;;;5110545;27;20074;-62
2022/12/28 08:31:45;;;;;;;17.33;11.57;;;8.40;99.90;;;;;;5117984;27;20035;-61
2022/12/28 08:34:14;;;;;;;15.27;10.20;;;8.40;99.90;;;;;;5124821;27;20023;-60
2022/12/28 08:36:40;;;;;;;15.50;10.85;;;8.50;99.90;;;;;;5124276;27;20034;-60
2022/12/28 08:39:05;;;;;;;16.75;11.57;;;8.50;99.90;;;;;;5101748;27;21305;-63
2022/12/28 08:41:31;;;;;;;13.45;8.95;;;8.50;99.90;;;;;;5128557;27;20038;-60
2022/12/28 08:43:58;;;;;;;16.75;10.52;;;8.50;99.90;;;;;;5145341;27;20034;-60
2022/12/28 08:46:32;;;;;;;20.48;12.57;;;8.50;99.90;;;;;;5106485;27;20485;-61
2022/12/28 08:48:59;;;;;;;;;;;8.50;99.90;;;;;;5115664;27;20047;-62
2022/12/28 08:51:31;;;;;;;19.98;11.32;;;8.40;99.90;;;;;;5138916;27;19984;-62
2022/12/28 08:53:57;;;;;;;17.50;11.05;;;8.40;99.90;;;;;;5126048;27;20047;-61
2022/12/28 08:56:29;;;;;;;16.85;9.85;;;8.40;99.90;;;;;;5109961;27;20039;-63
2022/12/28 08:58:55;;;;;;;15.05;9.07;;;8.40;99.90;;;;;;5128275;27;20564;-61
2022/12/28 09:01:32;;;;;;;13.23;9.10;;;8.40;99.90;;;;;;5142948;27;20031;-62
2022/12/28 09:03:59;;;;;;;15.50;9.93;;;8.40;99.90;;;;;;5115525;27;20047;-62
2022/12/28 09:06:35;;;;;;;14.27;7.55;;;8.40;99.90;;;;;;5107085;27;20047;-63
2022/12/28 09:09:02;;;;;;;12.05;8.15;;;8.40;99.90;;;;;;5139954;27;20118;-59
2022/12/28 09:11:28;;;;;;;11.68;6.07;;;8.40;99.90;;;;;;5127673;27;20127;-62
2022/12/28 09:13:53;;;;;;;10.10;6.63;;;8.50;99.90;;;;;;5110307;27;20259;-59
2022/12/28 09:16:24;;;;;;;13.98;7.28;;;8.50;99.90;;;;;;5126345;27;20155;-60
2022/12/28 09:18:58;;;;;;;11.25;6.13;;;8.40;99.90;;;;;;5125736;27;20030;-64
2022/12/28 09:21:26;;;;;;;;;;;8.50;99.90;;;;;;5145821;27;20855;-62
2022/12/28 09:23:51;;;;;;;10.93;6.63;;;8.40;99.90;;;;;;5144599;27;20045;-61
2022/12/28 09:26:19;;;;;;;12.68;6.70;;;8.40;99.90;;;;;;5145950;27;20584;-59
2022/12/28 09:28:49;;;;;;;12.15;6.32;;;8.50;99.90;;;;;;5125848;27;20485;-64
2022/12/28 09:31:16;;;;;;;10.15;6.00;;;8.40;99.90;;;;;;5144928;27;20058;-61
2022/12/28 09:34:00;;;;;;;12.65;6.60;;;8.50;99.90;;;;;;5120654;27;20034;-62
2022/12/28 09:36:26;;;;;;;11.38;6.85;;;8.50;99.90;;;;;;5126592;27;20039;-63
2022/12/28 09:38:51;;;;;;;12.93;7.45;;;8.50;99.90;;;;;;5116432;27;20616;-60
2022/12/28 09:41:34;;;;;;;10.27;6.78;;;8.50;99.90;;;;;;5108521;27;20048;-57
2022/12/28 09:44:06;;;;;;;12.40;7.20;;;8.50;99.90;;;;;;5134610;27;20023;-58
2022/12/28 09:46:33;;;;;;;10.95;7.15;;;8.50;99.90;;;;;;5133397;27;20130;-57
2022/12/28 09:49:01;;;;;;;10.82;6.90;;;8.60;99.90;;;;;;5140027;27;20035;-58
2022/12/28 09:51:40;;;;;;;10.90;6.90;;;8.60;99.90;;;;;;5144128;27;20802;-59
2022/12/28 09:54:07;;;;;;;8.25;4.35;;;8.60;99.90;;;;;;5144065;27;20050;-58
2022/12/28 09:56:35;;;;;;;10.98;6.70;;;8.60;99.90;;;;;;5144382;27;20046;-57
2022/12/28 09:59:04;;;;;;;14.38;7.28;;;8.60;99.90;;;;;;5144955;27;20035;-57
2022/12/28 10:01:31;;;;;;;11.23;6.50;;;8.60;99.90;;;;;;5145597;27;20485;-59
2022/12/28 10:04:00;;;;;;;10.48;6.68;;;8.60;99.90;;;;;;5143563;27;20512;-56
2022/12/28 10:06:31;;;;;;;10.73;5.65;;;8.60;99.90;;;;;;5144470;27;20056;-56
2022/12/28 10:08:59;;;;;;;9.88;5.93;;;8.70;99.90;;;;;;5144107;27;20042;-58
2022/12/28 10:11:39;;;;;;;9.10;5.70;;;8.70;99.90;;;;;;5144827;27;20039;-58
2022/12/28 10:14:26;;;;;;;10.20;5.72;;;8.70;99.90;;;;;;5145489;27;20042;-56
2022/12/28 10:16:53;;;;;;;12.32;6.28;;;8.70;99.90;;;;;;5143671;27;20049;-57
2022/12/28 10:19:22;;;;;;;9.35;5.53;;;8.70;99.90;;;;;;5144630;27;20540;-57
2022/12/28 10:22:01;;;;;;;12.68;6.78;;;8.70;99.90;;;;;;5145467;27;20035;-57
2022/12/28 10:24:28;;;;;;;13.15;6.97;;;8.70;99.90;;;;;;5144438;27;20039;-58
2022/12/28 10:26:56;;;;;;;12.70;7.30;;;8.70;99.90;;;;;;5145177;27;20046;-58
2022/12/28 10:29:23;;;;;;;14.07;8.48;;;8.70;99.90;;;;;;5144463;27;20027;-58
2022/12/28 10:32:16;;;;;;;15.02;8.50;;;8.80;99.90;;;;;;5145191;27;20199;-57
2022/12/28 10:34:57;;;;;;;14.75;7.57;;;8.80;99.90;;;;;;5137227;27;20058;-59
2022/12/28 10:37:25;;;;;;;12.75;7.03;;;8.80;99.90;;;;;;5124154;27;20062;-56
2022/12/28 10:39:55;;;;;;;16.70;8.18;;;8.80;99.90;;;;;;5126689;27;20054;-56
2022/12/28 10:42:31;;;;;;;10.27;6.15;;;8.80;99.90;;;;;;5144765;27;20595;-56
2022/12/28 10:45:02;;;;;;;9.95;6.18;;;8.80;99.90;;;;;;5145888;27;20133;-56
2022/12/28 10:47:34;;;;;;;7.18;3.63;;;8.90;99.90;;;;;;5148495;27;20311;-56
2022/12/28 10:50:00;;;;;;;9.50;5.38;;;8.90;99.90;;;;;;5147624;27;20074;-58
2022/12/28 10:52:26;;;;;;;10.88;5.78;;;8.90;99.90;;;;;;5145791;27;20501;-57
2022/12/28 10:54:51;;;;;;;10.55;5.60;;;8.90;99.90;;;;;;5149018;27;20027;-59
2022/12/28 10:57:28;;;;;;;9.30;5.95;;;8.90;99.90;;;;;;5149091;27;20037;-57
2022/12/28 11:00:20;;;;;;;9.43;4.72;;;9.00;99.90;;;;;;5149043;27;20122;-57
2022/12/28 11:02:46;;;;;;;7.32;4.13;;;9.00;99.90;;;;;;5147192;27;20743;-59
2022/12/28 11:05:23;;;;;;;10.15;5.00;;;9.00;99.90;;;;;;5148515;27;20042;-56
2022/12/28 11:08:03;;;;;;;7.40;4.78;;;9.00;99.90;;;;;;5146805;27;20046;-58
2022/12/28 11:10:29;;;;;;;9.40;5.15;;;9.00;99.90;;;;;;5148536;27;20135;-57
2022/12/28 11:13:00;;;;;;;9.63;4.80;;;9.00;99.90;;;;;;5149055;27;20510;-58
2022/12/28 11:15:32;;;;;;;10.10;5.35;;;9.00;99.90;;;;;;5148212;27;20503;-58
2022/12/28 11:18:13;;;;;;;7.60;5.10;;;9.00;99.90;;;;;;5135082;27;20039;-58
2022/12/28 11:20:43;;;;;;;9.13;4.95;;;9.00;99.90;;;;;;5148029;27;20041;-56
2022/12/28 11:23:23;;;;;;;8.55;5.22;;;9.00;99.90;;;;;;5145129;27;20049;-57
2022/12/28 11:25:50;;;;;;;8.68;4.75;;;9.00;99.90;;;;;;5148626;27;20421;-57
2022/12/28 11:28:19;;;;;;;9.38;5.55;;;9.10;99.90;;;;;;5112178;27;20047;-57
2022/12/28 11:30:46;;;;;;;8.13;5.25;;;9.00;99.90;;;;;;5148380;27;20043;-59
2022/12/28 11:33:27;;;;;;;8.65;5.25;;;9.00;99.90;;;;;;5146650;27;20066;-56
2022/12/28 11:35:54;;;;;;;8.32;5.70;;;9.00;99.90;;;;;;5147082;27;20054;-57
2022/12/28 11:38:39;;;;;;;9.85;5.80;;;9.10;99.90;;;;;;5146811;27;20035;-57
2022/12/28 11:41:05;;;;;;;10.70;5.57;;;9.00;99.90;;;;;;5147720;27;20435;-56
2022/12/28 11:43:38;;;;;;;8.45;5.05;;;9.00;99.90;;;;;;5147883;27;20063;-57
2022/12/28 11:46:05;;;;;;;8.90;4.85;;;9.00;99.90;;;;;;5147463;27;20043;-56
2022/12/28 11:48:40;;;;;;;8.02;4.70;;;9.00;99.90;;;;;;5146341;27;20046;-56
2022/12/28 11:51:20;;;;;;;6.43;3.80;;;9.00;99.90;;;;;;5147465;27;20062;-58
2022/12/28 11:53:46;;;;;;;6.80;4.28;;;9.00;99.90;;;;;;5145613;27;20046;-59
2022/12/28 11:56:13;;;;;;;6.07;3.55;;;9.00;99.90;;;;;;5147432;27;20111;-57
2022/12/28 11:58:39;;;;;;;9.07;4.18;;;9.00;99.90;;;;;;5111347;27;20043;-58
2022/12/28 12:01:07;;;;;;;6.70;3.22;;;9.00;99.90;;;;;;5146611;27;20594;-57
2022/12/28 12:03:57;;;;;;;7.35;4.35;;;9.00;99.90;;;;;;5146068;27;20035;-58
2022/12/28 12:06:41;;;;;;;6.20;3.53;;;9.00;99.90;;;;;;5147397;27;20077;-58
2022/12/28 12:09:28;;;;;;;7.00;3.88;;;9.00;99.90;;;;;;5147040;27;20046;-57
2022/12/28 12:12:21;;;;;;;6.25;3.15;;;9.00;99.90;;;;;;5147728;27;20099;-57
2022/12/28 12:15:01;;;;;;;6.25;3.28;;;9.00;99.90;;;;;;5146033;27;20175;-58
2022/12/28 12:17:32;;;;;;;7.65;3.80;;;8.90;99.90;;;;;;5146149;27;20966;-57
2022/12/28 12:20:41;;;;;;;7.28;3.88;;;9.00;99.90;;;;;;5146018;27;20050;-58
2022/12/28 12:23:48;;;;;;;5.70;3.20;;;9.00;99.90;;;;;;5143738;27;20073;-59
2022/12/28 12:26:36;;;;;;;6.10;3.38;;;9.00;99.90;;;;;;5146306;27;20042;-56
2022/12/28 12:29:17;;;;;;;7.40;3.85;;;9.00;99.90;;;;;;5147076;27;20057;-60
2022/12/28 12:31:56;;;;;;;7.60;4.05;;;9.00;99.90;;;;;;5115530;27;20687;-58
2022/12/28 12:34:28;;;;;;;7.55;4.15;;;9.00;99.90;;;;;;5146195;27;20039;-59
2022/12/28 12:37:02;;;;;;;6.63;3.83;;;8.90;99.90;;;;;;5145317;27;20046;-59
2022/12/28 12:40:06;;;;;;;8.00;3.90;;;9.00;99.90;;;;;;5145909;27;20171;-58
2022/12/28 12:42:40;;;;;;;7.20;4.10;;;8.90;99.90;;;;;;5146905;27;20042;-58
2022/12/28 12:45:05;;;;;;;;;;;8.90;99.90;;;;;;5147306;27;20046;-58
2022/12/28 12:47:51;;;;;;;7.07;4.53;;;8.90;99.90;;;;;;5116462;27;20319;-57
2022/12/28 12:50:39;;;;;;;8.35;4.45;;;8.90;99.90;;;;;;5145494;27;20066;-59
2022/12/28 12:53:31;;;;;;;7.90;4.03;;;8.90;99.90;;;;;;5144523;27;20659;-59
2022/12/28 12:56:11;;;;;;;6.85;4.10;;;8.90;99.90;;;;;;5146764;27;20043;-57
2022/12/28 12:58:46;;;;;;;8.55;4.22;;;8.90;99.90;;;;;;5146796;27;20039;-58
2022/12/28 13:01:33;;;;;;;8.73;4.57;;;8.90;99.90;;;;;;5145839;27;20087;-58
2022/12/28 13:04:17;;;;;;;7.38;4.30;;;8.90;99.90;;;;;;5144911;27;20050;-55
2022/12/28 13:06:42;;;;;;;7.53;4.18;;;8.90;99.90;;;;;;5145407;27;20046;-60
2022/12/28 13:09:14;;;;;;;6.75;3.90;;;8.90;99.90;;;;;;5144286;27;20106;-60
2022/12/28 13:11:40;;;;;;;8.10;4.15;;;8.90;99.90;;;;;;5146244;27;20066;-58
2022/12/28 13:14:14;;;;;;;7.00;3.85;;;8.90;99.90;;;;;;5145282;27;20524;-59
2022/12/28 13:16:39;;;;;;;6.13;3.42;;;8.90;99.90;;;;;;5146198;27;20585;-60
2022/12/28 13:19:14;;;;;;;7.00;4.30;;;8.90;99.90;;;;;;5125370;27;20117;-58
2022/12/28 13:21:49;;;;;;;6.97;4.25;;;8.90;99.90;;;;;;5144916;27;20043;-58
2022/12/28 13:24:21;;;;;;;7.43;3.58;;;8.90;99.90;;;;;;5146175;27;20113;-58
2022/12/28 13:26:47;;;;;;;6.65;4.00;;;8.80;99.90;;;;;;5145656;27;20072;-58
2022/12/28 13:29:19;;;;;;;7.07;4.10;;;8.80;99.90;;;;;;5145917;27;20039;-57
2022/12/28 13:31:48;;;;;;;7.18;3.95;;;8.80;99.90;;;;;;5126888;27;20442;-57